Dades meteomassalio
Diari Summary for Maig 6, 2017 Units:  Metric    English   Both
« Previous Day
Next Day »
Diari Semanal Mensual Anual Personalitzat
  Maxima: Minima: Mijana:
Temperatura: 24.7 °C 12.5 °C 18.1 °C
Rosada: 12.2 °C 1.1 °C 5.6 °C
Humitat: 82 % 22 % 48 %
Velocitat del vent: 48.1 km/h 0.0 km/h 17.4 km/h
Racha vent: 48.1 km/h - -
Vent:- - WNW
Pressio: 1019.5 hPa 1008.7 hPa -
Pluja: 0.5 mm    
Historical Graphs
 
 
Tabular Data for Maig 6, 2017
Time Temperature Dew Point Pressure Wind Wind Speed Wind Gust Humidity Rainfall Rate (Hourly) solar Conditions
00:04 14.9 °C 11.2 °C 1008.7 hPa Calm     78 % 0.0 mm 0.0 W/m2 CLR
00:09 14.8 °C 11.2 °C 1009.0 hPa Calm     79 % 0.0 mm 0.0 W/m2 CLR
00:14 14.6 °C 11.0 °C 1009.4 hPa NW 9.7 km/h 9.7 km/h 79 % 0.0 mm 0.0 W/m2 CLR
00:19 14.6 °C 11.2 °C 1009.4 hPa WNW 7.4 km/h 7.4 km/h 80 % 0.0 mm 0.0 W/m2 CLR
00:24 14.5 °C 11.1 °C 1009.4 hPa Calm     80 % 0.0 mm 0.0 W/m2 CLR
00:29 14.3 °C 10.9 °C 1009.4 hPa Calm     80 % 0.0 mm 0.0 W/m2 CLR
00:34 14.3 °C 10.9 °C 1009.4 hPa Calm     80 % 0.0 mm 0.0 W/m2 CLR
00:39 14.7 °C 11.7 °C 1009.4 hPa WSW 16.1 km/h 16.1 km/h 82 % 0.0 mm 0.0 W/m2 CLR
00:44 15.5 °C 12.1 °C 1009.7 hPa WSW 16.7 km/h 16.7 km/h 80 % 0.0 mm 0.0 W/m2 CLR
00:49 15.7 °C 12.1 °C 1009.7 hPa West 20.4 km/h 20.4 km/h 79 % 0.0 mm 0.0 W/m2 CLR
00:54 15.8 °C 12.2 °C 1009.7 hPa West 9.3 km/h 9.3 km/h 79 % 0.0 mm 0.0 W/m2 CLR
00:59 15.8 °C 11.9 °C 1009.7 hPa West 5.6 km/h 5.6 km/h 78 % 0.0 mm 0.0 W/m2 CLR
01:04 15.8 °C 11.9 °C 1009.7 hPa Calm     78 % 0.0 mm 0.0 W/m2 CLR
01:09 15.8 °C 12.0 °C 1010.0 hPa Calm     78 % 0.0 mm 0.0 W/m2 CLR
01:14 15.8 °C 12.0 °C 1010.0 hPa Calm     78 % 0.0 mm 0.0 W/m2 CLR
01:20 15.8 °C 12.0 °C 1010.0 hPa Calm     78 % 0.0 mm 0.0 W/m2 CLR
01:25 15.8 °C 11.9 °C 1010.0 hPa Calm     78 % 0.0 mm 0.0 W/m2 CLR
01:30 15.8 °C 11.9 °C 1010.4 hPa Calm     78 % 0.0 mm 0.0 W/m2 CLR
01:35 15.8 °C 11.9 °C 1010.4 hPa Calm     78 % 0.0 mm 0.0 W/m2 CLR
01:40 15.8 °C 12.0 °C 1010.4 hPa Calm     78 % 0.0 mm 0.0 W/m2 CLR
01:45 15.8 °C 12.0 °C 1010.4 hPa Calm     78 % 0.0 mm 0.0 W/m2 CLR
01:50 15.8 °C 12.0 °C 1010.7 hPa Calm     78 % 0.0 mm 0.0 W/m2 CLR
01:55 16.0 °C 12.2 °C 1010.7 hPa WNW 11.1 km/h 11.1 km/h 78 % 0.0 mm 0.0 W/m2 CLR
02:00 16.2 °C 12.1 °C 1010.7 hPa WNW 11.1 km/h 11.1 km/h 77 % 0.0 mm 0.0 W/m2 CLR
02:05 16.2 °C 12.1 °C 1010.7 hPa NW 9.3 km/h 9.3 km/h 77 % 0.0 mm 0.0 W/m2 CLR
02:10 16.1 °C 12.1 °C 1011.1 hPa WNW 16.7 km/h 16.7 km/h 77 % 0.0 mm 0.0 W/m2 CLR
02:15 16.0 °C 11.9 °C 1011.1 hPa WNW 14.8 km/h 14.8 km/h 77 % 0.0 mm 0.0 W/m2 CLR
02:20 15.9 °C 12.1 °C 1011.1 hPa WNW 22.5 km/h 22.5 km/h 78 % 0.0 mm 0.0 W/m2 CLR
02:25 15.8 °C 11.9 °C 1011.1 hPa WNW 18.5 km/h 18.5 km/h 78 % 0.0 mm 0.0 W/m2 CLR
02:30 15.7 °C 11.5 °C 1011.4 hPa WNW 20.4 km/h 20.4 km/h 76 % 0.0 mm 0.0 W/m2 CLR
02:35 15.7 °C 10.7 °C 1011.1 hPa NW 35.4 km/h 35.4 km/h 72 % 0.0 mm 0.0 W/m2 CLR
02:40 15.5 °C 10.7 °C 1011.4 hPa NNW 38.6 km/h 38.6 km/h 73 % 0.0 mm 0.0 W/m2 CLR
02:45 14.9 °C 10.6 °C 1012.1 hPa NW 25.9 km/h 25.9 km/h 75 % 0.5 mm 0.0 W/m2 RA
02:50 14.8 °C 10.2 °C 1011.7 hPa NW 33.3 km/h 33.3 km/h 74 % 0.5 mm 0.0 W/m2 CLR
02:55 14.7 °C 10.3 °C 1012.1 hPa NW 33.8 km/h 33.8 km/h 75 % 0.5 mm 0.0 W/m2 CLR
03:00 14.6 °C 10.2 °C 1012.1 hPa WNW 25.9 km/h 25.9 km/h 75 % 0.5 mm 0.0 W/m2 CLR
03:05 14.5 °C 10.3 °C 1012.1 hPa NW 24.1 km/h 24.1 km/h 76 % 0.5 mm 0.0 W/m2 CLR
03:10 14.4 °C 10.2 °C 1012.4 hPa NW 24.1 km/h 24.1 km/h 76 % 0.5 mm 0.0 W/m2 CLR
03:15 14.3 °C 10.3 °C 1012.4 hPa NW 20.9 km/h 20.9 km/h 77 % 0.5 mm 0.0 W/m2 CLR
03:20 14.2 °C 10.2 °C 1012.4 hPa WNW 18.5 km/h 18.5 km/h 77 % 0.5 mm 0.0 W/m2 CLR
03:25 14.1 °C 10.1 °C 1012.4 hPa WNW 16.7 km/h 16.7 km/h 77 % 0.5 mm 0.0 W/m2 CLR
03:30 14.1 °C 10.1 °C 1012.4 hPa WNW 18.5 km/h 18.5 km/h 77 % 0.5 mm 0.0 W/m2 CLR
03:35 14.1 °C 9.9 °C 1012.4 hPa WNW 18.5 km/h 18.5 km/h 76 % 0.5 mm 0.0 W/m2 CLR
03:40 14.1 °C 9.9 °C 1012.4 hPa West 18.5 km/h 18.5 km/h 76 % 0.0 mm 0.0 W/m2 CLR
03:45 14.0 °C 9.8 °C 1012.4 hPa NW 11.1 km/h 11.1 km/h 76 % 0.0 mm 0.0 W/m2 CLR
03:50 13.9 °C 9.6 °C 1012.8 hPa WNW 9.3 km/h 9.3 km/h 75 % 0.0 mm 0.0 W/m2 CLR
03:55 13.9 °C 9.4 °C 1012.4 hPa WNW 13.0 km/h 13.0 km/h 74 % 0.0 mm 0.0 W/m2 CLR
04:00 13.9 °C 9.4 °C 1012.8 hPa Calm     74 % 0.0 mm 0.0 W/m2 CLR
04:05 13.8 °C 9.1 °C 1012.4 hPa WNW 18.5 km/h 18.5 km/h 73 % 0.0 mm 0.0 W/m2 CLR
04:10 13.9 °C 8.9 °C 1012.4 hPa NW 16.7 km/h 16.7 km/h 72 % 0.0 mm 0.0 W/m2 CLR
04:15 13.8 °C 8.8 °C 1012.4 hPa Calm     72 % 0.0 mm 0.0 W/m2 CLR
04:20 13.7 °C 8.8 °C 1012.4 hPa Calm     72 % 0.0 mm 0.0 W/m2 CLR
04:25 13.6 °C 8.7 °C 1012.4 hPa West 14.5 km/h 14.5 km/h 72 % 0.0 mm 0.0 W/m2 CLR
04:30 13.7 °C 8.5 °C 1012.1 hPa West 14.5 km/h 14.5 km/h 71 % 0.0 mm 0.0 W/m2 CLR
04:35 13.7 °C 8.3 °C 1012.1 hPa West 14.8 km/h 14.8 km/h 70 % 0.0 mm 0.0 W/m2 CLR
04:40 13.6 °C 8.2 °C 1012.1 hPa West 11.1 km/h 11.1 km/h 70 % 0.0 mm 0.0 W/m2 CLR
04:45 13.6 °C 8.2 °C 1011.7 hPa West 11.1 km/h 11.1 km/h 70 % 0.0 mm 0.0 W/m2 CLR
04:50 13.4 °C 8.1 °C 1011.7 hPa WSW 12.9 km/h 12.9 km/h 70 % 0.0 mm 0.0 W/m2 CLR
04:55 13.3 °C 8.0 °C 1012.1 hPa West 11.3 km/h 11.3 km/h 70 % 0.0 mm 0.0 W/m2 CLR
04:56 13.3 °C 8.0 °C 1012.1 hPa West 11.1 km/h 11.1 km/h 70 % 0.0 mm 0.0 W/m2 CLR
05:01 13.4 °C 8.0 °C 1012.1 hPa WNW 13.0 km/h 13.0 km/h 70 % 0.0 mm 0.0 W/m2 CLR
05:06 13.4 °C 8.0 °C 1012.4 hPa WNW 9.3 km/h 9.3 km/h 70 % 0.0 mm 0.0 W/m2 CLR
05:11 13.3 °C 7.9 °C 1012.4 hPa NW 11.3 km/h 11.3 km/h 70 % 0.0 mm 0.0 W/m2 CLR
05:16 12.8 °C 7.9 °C 1012.4 hPa West 9.3 km/h 9.3 km/h 72 % 0.0 mm 0.0 W/m2 CLR
05:21 12.9 °C 7.9 °C 1012.4 hPa West 13.0 km/h 13.0 km/h 72 % 0.0 mm 0.0 W/m2 CLR
05:26 12.9 °C 7.8 °C 1012.4 hPa Calm     71 % 0.0 mm 0.0 W/m2 CLR
05:28 12.9 °C 7.8 °C 1012.4 hPa Calm     71 % 0.0 mm 0.0 W/m2 CLR
05:33 12.8 °C 7.8 °C 1012.4 hPa Calm     72 % 0.0 mm 0.0 W/m2 CLR
05:38 12.5 °C 7.6 °C 1012.4 hPa Calm     72 % 0.0 mm 0.0 W/m2 CLR
05:43 12.6 °C 7.4 °C 1012.4 hPa WNW 14.8 km/h 14.8 km/h 71 % 0.0 mm 0.0 W/m2 CLR
05:48 12.7 °C 7.3 °C 1012.4 hPa WNW 11.1 km/h 11.1 km/h 70 % 0.0 mm 0.0 W/m2 CLR
05:53 12.7 °C 7.3 °C 1012.8 hPa West 13.0 km/h 13.0 km/h 70 % 0.0 mm 0.0 W/m2 CLR
05:58 12.9 °C 7.1 °C 1012.8 hPa WNW 14.8 km/h 14.8 km/h 68 % 0.0 mm 0.0 W/m2 CLR
06:03 13.0 °C 7.0 °C 1012.8 hPa West 16.7 km/h 16.7 km/h 67 % 0.0 mm 0.0 W/m2 CLR
06:08 13.1 °C 6.9 °C 1012.8 hPa West 18.5 km/h 18.5 km/h 66 % 0.0 mm 0.0 W/m2 CLR
06:13 13.1 °C 6.9 °C 1013.1 hPa WNW 19.3 km/h 19.3 km/h 66 % 0.0 mm 0.0 W/m2 CLR
06:18 13.1 °C 6.9 °C 1013.1 hPa WNW 18.5 km/h 18.5 km/h 66 % 0.0 mm 0.0 W/m2 CLR
06:23 12.9 °C 6.9 °C 1013.1 hPa WNW 18.5 km/h 18.5 km/h 67 % 0.0 mm 0.0 W/m2 CLR
06:28 12.9 °C 6.9 °C 1013.1 hPa WNW 18.5 km/h 18.5 km/h 67 % 0.0 mm 0.0 W/m2 CLR
06:33 13.0 °C 7.0 °C 1013.1 hPa West 22.2 km/h 22.2 km/h 67 % 0.0 mm 0.0 W/m2 CLR
06:38 13.3 °C 7.1 °C 1013.1 hPa WNW 18.5 km/h 18.5 km/h 66 % 0.0 mm 0.0 W/m2 CLR
06:43 13.3 °C 7.1 °C 1013.4 hPa West 16.7 km/h 16.7 km/h 66 % 0.0 mm 0.0 W/m2 OVC
06:48 13.3 °C 7.1 °C 1013.4 hPa WNW 18.5 km/h 18.5 km/h 66 % 0.0 mm 0.0 W/m2 OVC
06:53 13.2 °C 6.9 °C 1013.4 hPa WNW 16.7 km/h 16.7 km/h 66 % 0.0 mm 5.0 W/m2 OVC
06:58 12.9 °C 6.9 °C 1013.8 hPa WNW 14.8 km/h 14.8 km/h 67 % 0.0 mm 7.0 W/m2 BKN
07:03 12.8 °C 7.0 °C 1013.4 hPa WNW 14.8 km/h 14.8 km/h 68 % 0.0 mm 9.0 W/m2 BKN
07:08 12.7 °C 7.2 °C 1013.8 hPa WNW 14.8 km/h 14.8 km/h 69 % 0.0 mm 12.0 W/m2 BKN
07:13 12.7 °C 7.1 °C 1013.8 hPa WNW 13.0 km/h 13.0 km/h 69 % 0.0 mm 12.0 W/m2 BKN
07:18 12.7 °C 7.1 °C 1013.8 hPa WNW 11.3 km/h 11.3 km/h 69 % 0.0 mm 16.0 W/m2 BKN
07:23 12.6 °C 7.1 °C 1013.8 hPa WNW 11.3 km/h 11.3 km/h 69 % 0.0 mm 19.0 W/m2 BKN
07:28 12.8 °C 7.2 °C 1013.8 hPa West 13.0 km/h 13.0 km/h 69 % 0.0 mm 28.0 W/m2 BKN
07:30 12.8 °C 7.1 °C 1013.8 hPa West 13.0 km/h 13.0 km/h 68 % 0.0 mm 35.0 W/m2 BKN
07:35 13.1 °C 7.3 °C 1013.8 hPa West 11.1 km/h 11.1 km/h 68 % 0.0 mm 33.0 W/m2 BKN
07:40 13.2 °C 7.2 °C 1014.1 hPa West 5.6 km/h 5.6 km/h 67 % 0.0 mm 56.0 W/m2 SCT
07:45 13.4 °C 7.4 °C 1014.1 hPa West 5.6 km/h 5.6 km/h 67 % 0.0 mm 72.0 W/m2 FEW
07:50 13.4 °C 7.4 °C 1014.1 hPa West 3.2 km/h 3.2 km/h 67 % 0.0 mm 86.0 W/m2 CLR
07:55 13.4 °C 7.4 °C 1014.1 hPa Calm     67 % 0.0 mm 104.0 W/m2 CLR
08:00 13.4 °C 7.4 °C 1014.1 hPa Calm     67 % 0.0 mm 120.0 W/m2 CLR
08:01 13.4 °C 7.4 °C 1014.1 hPa SW 7.4 km/h 7.4 km/h 67 % 0.0 mm 123.0 W/m2 CLR
08:06 13.5 °C 7.3 °C 1014.4 hPa WSW 5.6 km/h 5.6 km/h 66 % 0.0 mm 141.0 W/m2 CLR
08:11 13.6 °C 7.4 °C 1014.4 hPa WSW 5.6 km/h 5.6 km/h 66 % 0.0 mm 158.0 W/m2 CLR
08:16 13.7 °C 7.5 °C 1014.4 hPa SW 1.9 km/h   66 % 0.0 mm 181.0 W/m2 CLR
08:21 13.9 °C 7.4 °C 1014.4 hPa West 9.3 km/h 9.3 km/h 65 % 0.3 mm 199.0 W/m2 RA
08:26 14.2 °C 7.5 °C 1014.4 hPa West 13.0 km/h 13.0 km/h 64 % 0.3 mm 216.0 W/m2 CLR
08:31 14.4 °C 7.4 °C 1014.4 hPa WNW 13.0 km/h 13.0 km/h 63 % 0.3 mm 236.0 W/m2 CLR
08:36 14.6 °C 7.7 °C 1014.4 hPa WSW 22.2 km/h 22.2 km/h 63 % 0.3 mm 255.0 W/m2 CLR
08:41 14.7 °C 7.4 °C 1014.4 hPa NW 24.1 km/h 24.1 km/h 62 % 0.3 mm 271.0 W/m2 CLR
08:46 14.7 °C 7.5 °C 1014.4 hPa NW 14.8 km/h 14.8 km/h 62 % 0.3 mm 287.0 W/m2 CLR
08:51 14.9 °C 7.7 °C 1014.4 hPa NNW 20.4 km/h 20.4 km/h 62 % 0.3 mm 302.0 W/m2 CLR
08:56 15.0 °C 7.6 °C 1014.4 hPa WNW 24.1 km/h 24.1 km/h 61 % 0.3 mm 322.0 W/m2 CLR
09:01 15.2 °C 7.7 °C 1014.4 hPa WNW 19.3 km/h 19.3 km/h 61 % 0.3 mm 338.0 W/m2 CLR
09:06 15.2 °C 7.5 °C 1014.4 hPa NW 22.2 km/h 22.2 km/h 60 % 0.3 mm 352.0 W/m2 CLR
09:11 15.4 °C 7.4 °C 1014.4 hPa NW 33.3 km/h 33.3 km/h 59 % 0.3 mm 369.0 W/m2 CLR
09:16 15.6 °C 7.1 °C 1014.8 hPa NNW 42.6 km/h 42.6 km/h 57 % 0.3 mm 388.0 W/m2 CLR
09:21 15.7 °C 7.5 °C 1014.8 hPa WNW 27.8 km/h 27.8 km/h 58 % 0.0 mm 404.0 W/m2 CLR
09:26 15.9 °C 7.2 °C 1014.8 hPa West 35.2 km/h 35.2 km/h 56 % 0.0 mm 422.0 W/m2 CLR
09:31 16.2 °C 6.6 °C 1014.8 hPa NW 48.1 km/h 48.1 km/h 53 % 0.0 mm 95.0 W/m2 CLR
09:36 16.3 °C 6.7 °C 1014.8 hPa NW 37.0 km/h 37.0 km/h 53 % 0.0 mm 148.0 W/m2 CLR
09:41 16.3 °C 6.7 °C 1014.8 hPa NW 42.6 km/h 42.6 km/h 53 % 0.0 mm 473.0 W/m2 CLR
09:46 16.3 °C 6.7 °C 1014.8 hPa WNW 40.7 km/h 40.7 km/h 53 % 0.0 mm 489.0 W/m2 CLR
09:51 16.4 °C 6.8 °C 1014.8 hPa WNW 42.6 km/h 42.6 km/h 53 % 0.0 mm 503.0 W/m2 CLR
09:56 16.5 °C 7.2 °C 1014.8 hPa NW 25.9 km/h 25.9 km/h 54 % 0.0 mm 519.0 W/m2 CLR
10:01 16.7 °C 6.5 °C 1014.8 hPa NW 46.3 km/h 46.3 km/h 51 % 0.0 mm 538.0 W/m2 CLR
10:06 16.7 °C 6.5 °C 1015.1 hPa WNW 40.7 km/h 40.7 km/h 51 % 0.0 mm 552.0 W/m2 CLR
10:11 16.8 °C 6.6 °C 1015.1 hPa NNW 40.7 km/h 40.7 km/h 51 % 0.0 mm 564.0 W/m2 CLR
10:16 17.0 °C 6.8 °C 1015.1 hPa West 33.3 km/h 33.3 km/h 51 % 0.0 mm 578.0 W/m2 CLR
10:21 17.1 °C 6.9 °C 1015.1 hPa NW 38.9 km/h 38.9 km/h 51 % 0.0 mm 591.0 W/m2 CLR
10:26 17.3 °C 6.4 °C 1015.1 hPa NW 45.1 km/h 45.1 km/h 49 % 0.0 mm 610.0 W/m2 CLR
10:31 17.4 °C 6.3 °C 1015.5 hPa WNW 44.4 km/h 44.4 km/h 48 % 0.0 mm 621.0 W/m2 CLR
10:36 17.6 °C 6.4 °C 1015.1 hPa NW 38.9 km/h 38.9 km/h 48 % 0.0 mm 640.0 W/m2 CLR
10:41 18.0 °C 5.6 °C 1015.1 hPa NW 31.5 km/h 31.5 km/h 44 % 0.0 mm 650.0 W/m2 CLR
10:46 18.1 °C 5.3 °C 1015.5 hPa WNW 35.2 km/h 35.2 km/h 43 % 0.0 mm 670.0 W/m2 CLR
10:51 18.1 °C 4.9 °C 1015.5 hPa NNW 38.9 km/h 38.9 km/h 42 % 0.0 mm 684.0 W/m2 CLR
10:56 18.1 °C 5.0 °C 1015.5 hPa WNW 40.2 km/h 40.2 km/h 42 % 0.0 mm 691.0 W/m2 CLR
11:01 18.3 °C 4.4 °C 1015.5 hPa NW 40.7 km/h 40.7 km/h 40 % 0.0 mm 705.0 W/m2 CLR
11:06 18.3 °C 4.4 °C 1015.5 hPa NW 46.3 km/h 46.3 km/h 40 % 0.0 mm 717.0 W/m2 CLR
11:11 18.4 °C 4.9 °C 1015.8 hPa WNW 31.5 km/h 31.5 km/h 41 % 0.0 mm 729.0 W/m2 CLR
11:16 18.3 °C 4.5 °C 1015.8 hPa WNW 48.1 km/h 48.1 km/h 40 % 0.0 mm 744.0 W/m2 CLR
11:21 18.2 °C 4.4 °C 1015.8 hPa West 37.0 km/h 37.0 km/h 40 % 0.0 mm 756.0 W/m2 CLR
11:27 18.3 °C 4.8 °C 1015.8 hPa WNW 37.0 km/h 37.0 km/h 41 % 0.0 mm 761.0 W/m2 CLR
11:32 18.6 °C 4.7 °C 1015.8 hPa WNW 42.6 km/h 42.6 km/h 40 % 0.0 mm 779.0 W/m2 CLR
11:37 18.6 °C 4.7 °C 1015.8 hPa NW 38.9 km/h 38.9 km/h 40 % 0.0 mm 788.0 W/m2 CLR
11:42 18.8 °C 4.2 °C 1015.8 hPa WNW 46.3 km/h 46.3 km/h 38 % 0.0 mm 795.0 W/m2 CLR
11:47 19.1 °C 4.0 °C 1015.8 hPa WNW 40.7 km/h 40.7 km/h 37 % 0.0 mm 807.0 W/m2 CLR
11:52 18.9 °C 4.3 °C 1015.8 hPa WNW 38.9 km/h 38.9 km/h 38 % 0.0 mm 817.0 W/m2 CLR
11:57 19.1 °C 3.7 °C 1015.5 hPa NW 33.8 km/h 36.4 km/h 36 % 0.0 mm 828.0 W/m2 CLR
12:02 19.3 °C 4.3 °C 1015.8 hPa NNW 27.8 km/h 27.8 km/h 37 % 0.0 mm 837.0 W/m2 CLR
12:07 19.4 °C 3.9 °C 1015.5 hPa NW 31.5 km/h 31.5 km/h 36 % 0.0 mm 846.0 W/m2 CLR
12:12 19.5 °C 3.6 °C 1015.5 hPa West 37.0 km/h 37.0 km/h 35 % 0.0 mm 854.0 W/m2 CLR
12:17 19.6 °C 3.7 °C 1015.8 hPa WNW 31.5 km/h 31.5 km/h 35 % 0.0 mm 861.0 W/m2 CLR
12:22 19.8 °C 4.3 °C 1015.8 hPa NNW 31.5 km/h 31.5 km/h 36 % 0.0 mm 872.0 W/m2 CLR
12:27 20.0 °C 3.2 °C 1015.8 hPa NW 33.3 km/h 33.3 km/h 33 % 0.0 mm 879.0 W/m2 CLR
12:32 19.9 °C 4.4 °C 1015.8 hPa WNW 27.8 km/h 27.8 km/h 36 % 0.0 mm 882.0 W/m2 CLR
12:37 20.1 °C 4.2 °C 1015.8 hPa NW 31.5 km/h 31.5 km/h 35 % 0.0 mm 886.0 W/m2 CLR
12:42 20.2 °C 4.3 °C 1015.8 hPa NW 31.5 km/h 31.5 km/h 35 % 0.0 mm 889.0 W/m2 CLR
12:47 20.3 °C 4.3 °C 1015.8 hPa NNW 27.8 km/h 27.8 km/h 35 % 0.0 mm 898.0 W/m2 CLR
12:52 20.6 °C 4.2 °C 1015.8 hPa NW 25.9 km/h 25.9 km/h 34 % 0.0 mm 902.0 W/m2 CLR
12:57 21.2 °C 4.3 °C 1015.8 hPa NNW 30.6 km/h 30.6 km/h 33 % 0.0 mm 911.0 W/m2 CLR
13:02 20.8 °C 3.9 °C 1015.8 hPa North 35.4 km/h 35.4 km/h 33 % 0.0 mm 918.0 W/m2 CLR
13:05 20.7 °C 3.8 °C 1015.8 hPa North 25.9 km/h 25.9 km/h 33 % 0.0 mm 919.0 W/m2 CLR
13:10 20.7 °C 3.8 °C 1015.8 hPa WNW 14.8 km/h 14.8 km/h 33 % 0.0 mm 923.0 W/m2 CLR
13:15 20.8 °C 3.1 °C 1015.8 hPa NNW 29.6 km/h 29.6 km/h 31 % 0.0 mm 925.0 W/m2 CLR
13:20 20.9 °C 3.6 °C 1015.8 hPa WNW 25.9 km/h 25.9 km/h 32 % 0.0 mm 933.0 W/m2 CLR
13:25 20.8 °C 3.5 °C 1015.8 hPa NNW 35.2 km/h 35.2 km/h 32 % 0.0 mm 928.0 W/m2 CLR
13:30 21.1 °C 3.3 °C 1015.8 hPa West 24.1 km/h 24.1 km/h 31 % 0.0 mm 935.0 W/m2 CLR
13:35 21.2 °C 3.3 °C 1015.8 hPa West 24.1 km/h 24.1 km/h 31 % 0.0 mm 939.0 W/m2 CLR
13:40 21.2 °C 2.9 °C 1015.8 hPa NW 33.3 km/h 33.3 km/h 30 % 0.0 mm 940.0 W/m2 CLR
13:45 21.5 °C 3.2 °C 1015.8 hPa NNW 25.9 km/h 25.9 km/h 30 % 0.0 mm 942.0 W/m2 CLR
13:50 21.5 °C 3.2 °C 1015.8 hPa WNW 24.1 km/h 24.1 km/h 30 % 0.0 mm 942.0 W/m2 CLR
13:55 21.7 °C 2.4 °C 1015.8 hPa North 25.9 km/h 25.9 km/h 28 % 0.0 mm 944.0 W/m2 CLR
14:00 21.7 °C 2.4 °C 1015.8 hPa NW 29.6 km/h 29.6 km/h 28 % 0.0 mm 942.0 W/m2 CLR
14:05 21.6 °C 2.8 °C 1015.8 hPa West 27.4 km/h 27.4 km/h 29 % 0.0 mm 944.0 W/m2 CLR
14:10 21.7 °C 2.9 °C 1015.8 hPa WNW 20.4 km/h 20.4 km/h 29 % 0.0 mm 939.0 W/m2 CLR
14:15 21.7 °C 3.3 °C 1015.8 hPa WNW 22.2 km/h 22.2 km/h 30 % 0.0 mm 940.0 W/m2 CLR
14:20 21.9 °C 3.6 °C 1015.8 hPa WNW 19.3 km/h 19.3 km/h 30 % 0.0 mm 939.0 W/m2 CLR
14:25 22.3 °C 3.4 °C 1015.8 hPa NNW 27.8 km/h 27.8 km/h 29 % 0.0 mm 935.0 W/m2 CLR
14:30 22.4 °C 2.4 °C 1016.1 hPa NW 22.2 km/h 22.2 km/h 27 % 0.0 mm 937.0 W/m2 CLR
14:35 22.6 °C 2.1 °C 1015.8 hPa WNW 19.3 km/h 19.3 km/h 26 % 0.0 mm 937.0 W/m2 CLR
14:40 22.6 °C 2.7 °C 1015.8 hPa WNW 31.5 km/h 31.5 km/h 27 % 0.0 mm 930.0 W/m2 CLR
14:45 22.8 °C 3.3 °C 1015.8 hPa WNW 24.1 km/h 24.1 km/h 28 % 0.0 mm 926.0 W/m2 CLR
14:50 22.9 °C 2.9 °C 1015.8 hPa WNW 31.5 km/h 31.5 km/h 27 % 0.0 mm 925.0 W/m2 CLR
14:55 22.8 °C 1.8 °C 1016.1 hPa NNW 17.7 km/h 17.7 km/h 25 % 0.0 mm 919.0 W/m2 CLR
15:00 22.9 °C 1.8 °C 1016.1 hPa NW 27.8 km/h 27.8 km/h 25 % 0.0 mm 914.0 W/m2 CLR
15:05 22.9 °C 1.2 °C 1015.8 hPa North 22.5 km/h 22.5 km/h 24 % 0.0 mm 911.0 W/m2 CLR
15:10 22.9 °C 1.8 °C 1016.1 hPa NW 33.3 km/h 33.3 km/h 25 % 0.0 mm 905.0 W/m2 CLR
15:15 23.1 °C 2.5 °C 1016.1 hPa West 24.1 km/h 24.1 km/h 26 % 0.0 mm 865.0 W/m2 CLR
15:20 23.0 °C 2.4 °C 1016.1 hPa WNW 19.3 km/h 19.3 km/h 26 % 0.0 mm 889.0 W/m2 CLR
15:25 23.1 °C 2.6 °C 1016.1 hPa NNW 20.4 km/h 20.4 km/h 26 % 0.0 mm 881.0 W/m2 CLR
15:30 23.3 °C 2.1 °C 1015.8 hPa WNW 18.5 km/h 18.5 km/h 25 % 0.0 mm 863.0 W/m2 CLR
15:35 23.6 °C 2.4 °C 1015.8 hPa NNE 18.5 km/h 18.5 km/h 25 % 0.0 mm 861.0 W/m2 CLR
15:40 23.4 °C 1.1 °C 1015.8 hPa NNW 27.8 km/h 27.8 km/h 23 % 0.0 mm 872.0 W/m2 CLR
15:45 23.1 °C 1.4 °C 1016.1 hPa SW 16.7 km/h 16.7 km/h 24 % 0.0 mm 752.0 W/m2 CLR
15:50 23.3 °C 1.6 °C 1016.1 hPa NW 22.2 km/h 22.2 km/h 24 % 0.0 mm 870.0 W/m2 CLR
15:55 23.4 °C 2.2 °C 1016.1 hPa NNW 22.2 km/h 22.2 km/h 25 % 0.0 mm 854.0 W/m2 CLR
16:00 23.6 °C 2.4 °C 1016.1 hPa NNW 25.9 km/h 25.9 km/h 25 % 0.0 mm 717.0 W/m2 CLR
16:05 23.8 °C 2.0 °C 1016.1 hPa North 32.2 km/h 32.2 km/h 24 % 0.0 mm 795.0 W/m2 CLR
16:10 23.6 °C 1.8 °C 1015.8 hPa NNW 7.4 km/h 7.4 km/h 24 % 0.0 mm 821.0 W/m2 CLR
16:15 23.9 °C 2.1 °C 1016.1 hPa NW 31.5 km/h 31.5 km/h 24 % 0.0 mm 805.0 W/m2 CLR
16:20 23.7 °C 1.3 °C 1015.8 hPa WNW 22.2 km/h 22.2 km/h 23 % 0.0 mm 795.0 W/m2 CLR
16:25 23.8 °C 1.4 °C 1015.8 hPa West 31.5 km/h 31.5 km/h 23 % 0.0 mm 779.0 W/m2 CLR
16:30 23.4 °C 1.7 °C 1015.8 hPa WNW 18.5 km/h 18.5 km/h 24 % 0.0 mm 749.0 W/m2 CLR
16:35 23.7 °C 1.9 °C 1015.8 hPa WNW 24.1 km/h 24.1 km/h 24 % 0.0 mm 756.0 W/m2 CLR
16:40 24.0 °C 2.2 °C 1015.8 hPa WNW 27.8 km/h 27.8 km/h 24 % 0.0 mm 601.0 W/m2 CLR
16:45 24.2 °C 2.3 °C 1015.8 hPa NW 20.4 km/h 20.4 km/h 24 % 0.0 mm 717.0 W/m2 CLR
16:50 24.4 °C 1.9 °C 1015.8 hPa NNW 16.1 km/h 16.1 km/h 23 % 0.0 mm 715.0 W/m2 CLR
16:55 24.7 °C 2.1 °C 1015.8 hPa NW 29.6 km/h 29.6 km/h 23 % 0.0 mm 689.0 W/m2 CLR
17:00 24.7 °C 2.2 °C 1015.8 hPa NNW 25.9 km/h 25.9 km/h 23 % 0.0 mm 691.0 W/m2 CLR
17:05 24.3 °C 1.8 °C 1015.8 hPa NNW 31.5 km/h 31.5 km/h 23 % 0.0 mm 673.0 W/m2 CLR
17:10 24.3 °C 1.8 °C 1015.8 hPa WNW 25.9 km/h 25.9 km/h 23 % 0.0 mm 664.0 W/m2 CLR
17:16 24.6 °C 1.4 °C 1015.8 hPa WNW 29.6 km/h 29.6 km/h 22 % 0.0 mm 652.0 W/m2 CLR
17:21 24.1 °C 2.8 °C 1015.8 hPa NNW 19.3 km/h 19.3 km/h 25 % 0.0 mm 635.0 W/m2 CLR
17:26 24.0 °C 1.6 °C 1015.8 hPa NW 29.6 km/h 29.6 km/h 23 % 0.0 mm 624.0 W/m2 CLR
17:31 24.2 °C 1.7 °C 1015.8 hPa West 22.5 km/h 22.5 km/h 23 % 0.0 mm 612.0 W/m2 CLR
17:36 24.2 °C 2.3 °C 1015.8 hPa WNW 25.9 km/h 25.9 km/h 24 % 0.0 mm 592.0 W/m2 CLR
17:41 24.2 °C 2.9 °C 1015.5 hPa NW 18.5 km/h 18.5 km/h 25 % 0.0 mm 577.0 W/m2 CLR
17:44 24.3 °C 3.1 °C 1015.8 hPa WNW 22.2 km/h 22.2 km/h 25 % 0.0 mm 566.0 W/m2 CLR
17:49 24.3 °C 2.4 °C 1015.8 hPa NW 31.5 km/h 31.5 km/h 24 % 0.0 mm 554.0 W/m2 CLR
17:55 24.4 °C 2.5 °C 1015.8 hPa WNW 18.5 km/h 18.5 km/h 24 % 0.0 mm 540.0 W/m2 CLR
18:00 24.3 °C 1.8 °C 1015.8 hPa NNW 29.6 km/h 29.6 km/h 23 % 0.0 mm 519.0 W/m2 CLR
18:05 24.2 °C 2.3 °C 1015.8 hPa WNW 18.5 km/h 18.5 km/h 24 % 0.0 mm 506.0 W/m2 CLR
18:10 24.6 °C 2.1 °C 1015.8 hPa NNW 24.1 km/h 24.1 km/h 23 % 0.0 mm 492.0 W/m2 CLR
18:15 24.5 °C 2.0 °C 1015.8 hPa West 20.4 km/h 20.4 km/h 23 % 0.0 mm 476.0 W/m2 CLR
18:20 24.6 °C 1.4 °C 1015.8 hPa NW 24.1 km/h 24.1 km/h 22 % 0.0 mm 459.0 W/m2 CLR
18:25 24.3 °C 1.8 °C 1015.8 hPa NW 24.1 km/h 24.1 km/h 23 % 0.0 mm 439.0 W/m2 CLR
18:30 24.2 °C 1.8 °C 1015.8 hPa WNW 13.0 km/h 13.0 km/h 23 % 0.0 mm 425.0 W/m2 CLR
18:35 24.4 °C 2.5 °C 1015.8 hPa NNW 27.8 km/h 27.8 km/h 24 % 0.0 mm 408.0 W/m2 CLR
18:40 24.2 °C 2.9 °C 1015.8 hPa NNE 20.4 km/h 20.4 km/h 25 % 0.0 mm 390.0 W/m2 CLR
18:45 24.3 °C 3.0 °C 1015.8 hPa NNW 3.7 km/h 3.7 km/h 25 % 0.0 mm 373.0 W/m2 CLR
18:50 24.4 °C 1.9 °C 1015.8 hPa WNW 22.2 km/h 22.2 km/h 23 % 0.0 mm 357.0 W/m2 CLR
18:55 24.4 °C 1.9 °C 1015.8 hPa NNW 17.7 km/h 17.7 km/h 23 % 0.0 mm 339.0 W/m2 CLR
19:00 24.3 °C 1.2 °C 1015.8 hPa WNW 14.8 km/h 14.8 km/h 22 % 0.0 mm 325.0 W/m2 CLR
19:05 24.3 °C 1.8 °C 1015.8 hPa NNW 13.0 km/h 13.5 km/h 23 % 0.0 mm 306.0 W/m2 CLR
19:10 24.4 °C 2.5 °C 1015.8 hPa NW 18.5 km/h 18.5 km/h 24 % 0.0 mm 290.0 W/m2 CLR
19:15 24.3 °C 2.4 °C 1015.8 hPa WNW 1.9 km/h 1.9 km/h 24 % 0.0 mm 274.0 W/m2 CLR
19:20 24.1 °C 1.7 °C 1015.8 hPa NNW 29.6 km/h 29.6 km/h 23 % 0.0 mm 258.0 W/m2 CLR
19:25 23.9 °C 1.5 °C 1015.8 hPa WNW 25.9 km/h 25.9 km/h 23 % 0.0 mm 241.0 W/m2 CLR
19:30 23.9 °C 1.5 °C 1015.8 hPa NW 16.1 km/h 16.1 km/h 23 % 0.0 mm 220.0 W/m2 CLR
19:35 23.9 °C 2.7 °C 1015.8 hPa NNW 14.8 km/h 14.8 km/h 25 % 0.0 mm 200.0 W/m2 CLR
19:40 24.0 °C 2.7 °C 1015.8 hPa North 17.7 km/h 17.7 km/h 25 % 0.0 mm 181.0 W/m2 CLR
19:45 23.7 °C 3.1 °C 1015.8 hPa North 18.5 km/h 18.5 km/h 26 % 0.0 mm 163.0 W/m2 CLR
19:50 23.6 °C 2.9 °C 1015.8 hPa NNE 11.3 km/h 14.2 km/h 26 % 0.0 mm 142.0 W/m2 CLR
19:55 23.5 °C 3.4 °C 1015.8 hPa NNE 12.9 km/h 12.9 km/h 27 % 0.0 mm 125.0 W/m2 CLR
20:00 23.4 °C 2.8 °C 1015.8 hPa North 13.0 km/h 13.0 km/h 26 % 0.0 mm 109.0 W/m2 CLR
20:05 23.4 °C 3.3 °C 1015.8 hPa North 11.3 km/h 11.3 km/h 27 % 0.0 mm 93.0 W/m2 CLR
20:10 23.3 °C 3.3 °C 1015.8 hPa NNW 3.7 km/h 3.7 km/h 27 % 0.0 mm 79.0 W/m2 FEW
20:15 23.3 °C 2.7 °C 1016.1 hPa NNW 4.8 km/h 4.8 km/h 26 % 0.0 mm 63.0 W/m2 SCT
20:20 23.1 °C 3.1 °C 1016.1 hPa NNW 14.8 km/h 14.8 km/h 27 % 0.0 mm 44.0 W/m2 SCT
20:25 22.8 °C 3.3 °C 1016.1 hPa North 3.7 km/h 3.7 km/h 28 % 0.0 mm 37.0 W/m2 BKN
20:30 22.7 °C 3.3 °C 1016.1 hPa NNW 1.9 km/h 1.9 km/h 28 % 0.0 mm 28.0 W/m2 BKN
20:35 22.5 °C 3.6 °C 1016.5 hPa Calm     29 % 0.0 mm 18.0 W/m2 BKN
20:40 22.4 °C 3.4 °C 1016.5 hPa Calm     29 % 0.0 mm 14.0 W/m2 BKN
20:45 22.2 °C 3.3 °C 1016.5 hPa Calm     29 % 0.0 mm 12.0 W/m2 BKN
20:50 21.8 °C 3.4 °C 1016.5 hPa Calm     30 % 0.0 mm 11.0 W/m2 BKN
20:55 21.6 °C 3.7 °C 1016.5 hPa Calm     31 % 0.0 mm 7.0 W/m2 BKN
21:00 21.4 °C 3.6 °C 1016.5 hPa Calm     31 % 0.0 mm 5.0 W/m2 OVC
21:05 21.1 °C 3.3 °C 1016.8 hPa Calm     31 % 0.0 mm 0.0 W/m2 OVC
21:10 20.8 °C 3.4 °C 1016.8 hPa Calm     32 % 0.0 mm 0.0 W/m2 OVC
21:15 20.6 °C 3.3 °C 1016.8 hPa Calm     32 % 0.0 mm 0.0 W/m2 CLR
21:20 20.5 °C 3.7 °C 1016.8 hPa Calm     33 % 0.0 mm 0.0 W/m2 CLR
21:25 20.3 °C 3.5 °C 1016.8 hPa Calm     33 % 0.0 mm 0.0 W/m2 CLR
21:30 19.8 °C 3.9 °C 1016.8 hPa Calm     35 % 0.0 mm 0.0 W/m2 CLR
21:35 19.3 °C 3.4 °C 1017.2 hPa Calm     35 % 0.0 mm 0.0 W/m2 CLR
21:40 18.9 °C 3.9 °C 1017.2 hPa Calm     37 % 0.0 mm 0.0 W/m2 CLR
21:45 18.6 °C 3.9 °C 1017.5 hPa Calm     38 % 0.0 mm 0.0 W/m2 CLR
21:50 18.3 °C 3.8 °C 1017.5 hPa Calm     38 % 0.0 mm 0.0 W/m2 CLR
21:55 18.2 °C 3.6 °C 1017.5 hPa Calm     38 % 0.0 mm 0.0 W/m2 CLR
22:00 17.9 °C 3.4 °C 1017.5 hPa Calm     38 % 0.0 mm 0.0 W/m2 CLR
22:05 17.7 °C 3.6 °C 1017.8 hPa Calm     39 % 0.0 mm 0.0 W/m2 CLR
22:10 17.6 °C 3.8 °C 1017.8 hPa Calm     40 % 0.0 mm 0.0 W/m2 CLR
22:15 17.3 °C 3.9 °C 1017.8 hPa Calm     41 % 0.0 mm 0.0 W/m2 CLR
22:20 16.8 °C 3.8 °C 1018.2 hPa Calm     42 % 0.0 mm 0.0 W/m2 CLR
22:25 16.3 °C 3.7 °C 1018.2 hPa Calm     43 % 0.0 mm 0.0 W/m2 CLR
22:30 15.9 °C 3.4 °C 1018.2 hPa Calm     43 % 0.0 mm 0.0 W/m2 CLR
22:35 15.7 °C 3.5 °C 1018.5 hPa Calm     44 % 0.0 mm 0.0 W/m2 CLR
22:40 15.5 °C 3.3 °C 1018.5 hPa Calm     44 % 0.0 mm 0.0 W/m2 CLR
22:45 15.2 °C 3.6 °C 1018.5 hPa Calm     46 % 0.0 mm 0.0 W/m2 CLR
22:50 14.7 °C 3.5 °C 1018.5 hPa Calm     47 % 0.0 mm 0.0 W/m2 CLR
22:55 14.6 °C 3.4 °C 1018.8 hPa Calm     47 % 0.0 mm 0.0 W/m2 CLR
23:00 14.5 °C 3.3 °C 1018.8 hPa Calm     47 % 0.0 mm 0.0 W/m2 CLR
23:05 14.5 °C 3.0 °C 1019.2 hPa Calm     46 % 0.0 mm 0.0 W/m2 CLR
23:10 14.4 °C 2.9 °C 1019.2 hPa Calm     46 % 0.0 mm 0.0 W/m2 CLR
23:15 14.4 °C 2.9 °C 1019.2 hPa Calm     46 % 0.0 mm 0.0 W/m2 CLR
23:20 14.2 °C 3.1 °C 1019.2 hPa Calm     47 % 0.0 mm 0.0 W/m2 CLR
23:25 14.2 °C 3.1 °C 1019.2 hPa Calm     47 % 0.0 mm 0.0 W/m2 CLR
23:30 14.1 °C 3.3 °C 1019.5 hPa Calm     48 % 0.0 mm 0.0 W/m2 CLR
23:35 13.7 °C 3.2 °C 1019.5 hPa Calm     49 % 0.0 mm 0.0 W/m2 CLR
23:40 13.4 °C 2.9 °C 1019.5 hPa Calm     49 % 0.0 mm 0.0 W/m2 CLR
23:45 13.3 °C 3.1 °C 1019.5 hPa Calm     50 % 0.0 mm 0.0 W/m2 CLR
23:51 13.3 °C 3.1 °C 1019.5 hPa Calm     50 % 0.0 mm 0.0 W/m2 CLR
23:56 13.2 °C 3.3 °C 1019.5 hPa Calm     51 % 0.0 mm 0.0 W/m2 CLR
Lo Temps de Massalio
Compliments of Weather Underground - 1.25 mb